sensor_id;sensor_type;location;lat;lon;timestamp;P1;durP1;ratioP1;P2;durP2;ratioP2
43626;SDS011;29217;52.586;13.442;2024-02-21T00:01:59;13.50;;;5.13;;
43626;SDS011;29217;52.586;13.442;2024-02-21T00:04:24;16.25;;;5.80;;
43626;SDS011;29217;52.586;13.442;2024-02-21T00:06:50;26.48;;;5.43;;
43626;SDS011;29217;52.586;13.442;2024-02-21T00:09:16;13.25;;;4.75;;
43626;SDS011;29217;52.586;13.442;2024-02-21T00:11:44;14.90;;;4.45;;
43626;SDS011;29217;52.586;13.442;2024-02-21T00:14:09;10.50;;;5.07;;
43626;SDS011;29217;52.586;13.442;2024-02-21T00:16:35;15.73;;;5.07;;
43626;SDS011;29217;52.586;13.442;2024-02-21T00:19:01;16.77;;;4.47;;
43626;SDS011;29217;52.586;13.442;2024-02-21T00:21:26;22.27;;;5.50;;
43626;SDS011;29217;52.586;13.442;2024-02-21T00:23:52;12.93;;;4.95;;
43626;SDS011;29217;52.586;13.442;2024-02-21T00:26:18;17.40;;;4.95;;
43626;SDS011;29217;52.586;13.442;2024-02-21T00:28:43;15.90;;;4.30;;
43626;SDS011;29217;52.586;13.442;2024-02-21T00:31:10;18.63;;;4.22;;
43626;SDS011;29217;52.586;13.442;2024-02-21T00:33:35;22.25;;;4.43;;
43626;SDS011;29217;52.586;13.442;2024-02-21T00:36:01;10.35;;;4.20;;
43626;SDS011;29217;52.586;13.442;2024-02-21T00:38:26;11.25;;;4.10;;
43626;SDS011;29217;52.586;13.442;2024-02-21T00:40:52;15.05;;;4.35;;
43626;SDS011;29217;52.586;13.442;2024-02-21T00:43:17;32.17;;;4.47;;
43626;SDS011;29217;52.586;13.442;2024-02-21T00:45:43;14.82;;;4.53;;
43626;SDS011;29217;52.586;13.442;2024-02-21T00:48:09;11.25;;;4.03;;
43626;SDS011;29217;52.586;13.442;2024-02-21T00:50:34;11.77;;;3.47;;
43626;SDS011;29217;52.586;13.442;2024-02-21T00:53:00;12.55;;;4.88;;
43626;SDS011;29217;52.586;13.442;2024-02-21T00:55:25;13.60;;;3.90;;
43626;SDS011;29217;52.586;13.442;2024-02-21T00:57:51;15.57;;;4.50;;
43626;SDS011;29217;52.586;13.442;2024-02-21T01:00:17;12.38;;;4.10;;
43626;SDS011;29217;52.586;13.442;2024-02-21T01:02:43;16.60;;;4.07;;
43626;SDS011;29217;52.586;13.442;2024-02-21T01:05:08;11.27;;;3.35;;
43626;SDS011;29217;52.586;13.442;2024-02-21T01:07:34;20.73;;;4.53;;
43626;SDS011;29217;52.586;13.442;2024-02-21T01:10:00;11.93;;;3.63;;
43626;SDS011;29217;52.586;13.442;2024-02-21T01:12:25;17.25;;;4.15;;
43626;SDS011;29217;52.586;13.442;2024-02-21T01:14:51;10.27;;;4.07;;
43626;SDS011;29217;52.586;13.442;2024-02-21T01:17:17;17.90;;;3.60;;
43626;SDS011;29217;52.586;13.442;2024-02-21T01:19:42;13.90;;;4.22;;
43626;SDS011;29217;52.586;13.442;2024-02-21T01:22:08;14.35;;;3.58;;
43626;SDS011;29217;52.586;13.442;2024-02-21T01:24:34;8.82;;;3.22;;
43626;SDS011;29217;52.586;13.442;2024-02-21T01:26:59;11.95;;;4.35;;
43626;SDS011;29217;52.586;13.442;2024-02-21T01:29:25;17.80;;;3.95;;
43626;SDS011;29217;52.586;13.442;2024-02-21T01:31:50;13.02;;;3.90;;
43626;SDS011;29217;52.586;13.442;2024-02-21T01:34:16;9.60;;;2.97;;
43626;SDS011;29217;52.586;13.442;2024-02-21T01:36:41;16.23;;;3.92;;
43626;SDS011;29217;52.586;13.442;2024-02-21T01:39:07;7.53;;;3.22;;
43626;SDS011;29217;52.586;13.442;2024-02-21T01:41:33;8.95;;;3.90;;
43626;SDS011;29217;52.586;13.442;2024-02-21T01:43:58;14.07;;;3.65;;
43626;SDS011;29217;52.586;13.442;2024-02-21T01:46:24;13.23;;;4.15;;
43626;SDS011;29217;52.586;13.442;2024-02-21T01:48:55;10.50;;;3.80;;
43626;SDS011;29217;52.586;13.442;2024-02-21T01:51:22;10.50;;;3.88;;
43626;SDS011;29217;52.586;13.442;2024-02-21T01:53:48;12.23;;;3.95;;
43626;SDS011;29217;52.586;13.442;2024-02-21T01:56:15;7.38;;;4.30;;
43626;SDS011;29217;52.586;13.442;2024-02-21T01:58:42;16.33;;;3.65;;
43626;SDS011;29217;52.586;13.442;2024-02-21T02:01:09;14.30;;;3.45;;
43626;SDS011;29217;52.586;13.442;2024-02-21T02:03:35;9.10;;;3.55;;
43626;SDS011;29217;52.586;13.442;2024-02-21T02:06:02;10.82;;;3.88;;
43626;SDS011;29217;52.586;13.442;2024-02-21T02:08:29;14.82;;;3.38;;
43626;SDS011;29217;52.586;13.442;2024-02-21T02:10:56;14.27;;;3.53;;
43626;SDS011;29217;52.586;13.442;2024-02-21T02:13:22;12.98;;;3.30;;
43626;SDS011;29217;52.586;13.442;2024-02-21T02:15:48;11.13;;;4.03;;
43626;SDS011;29217;52.586;13.442;2024-02-21T02:18:14;10.88;;;3.72;;
43626;SDS011;29217;52.586;13.442;2024-02-21T02:20:41;11.23;;;3.30;;
43626;SDS011;29217;52.586;13.442;2024-02-21T02:23:07;12.35;;;3.30;;
43626;SDS011;29217;52.586;13.442;2024-02-21T02:25:43;11.00;;;3.90;;
43626;SDS011;29217;52.586;13.442;2024-02-21T02:28:10;11.80;;;3.33;;
43626;SDS011;29217;52.586;13.442;2024-02-21T02:30:36;12.35;;;4.25;;
43626;SDS011;29217;52.586;13.442;2024-02-21T02:33:02;18.40;;;5.28;;
43626;SDS011;29217;52.586;13.442;2024-02-21T02:35:29;17.83;;;3.83;;
43626;SDS011;29217;52.586;13.442;2024-02-21T02:37:54;14.00;;;3.88;;
43626;SDS011;29217;52.586;13.442;2024-02-21T02:40:20;24.80;;;5.18;;
43626;SDS011;29217;52.586;13.442;2024-02-21T02:42:46;11.60;;;4.13;;
43626;SDS011;29217;52.586;13.442;2024-02-21T02:45:13;14.63;;;4.00;;
43626;SDS011;29217;52.586;13.442;2024-02-21T02:47:45;8.05;;;3.40;;
43626;SDS011;29217;52.586;13.442;2024-02-21T02:50:11;15.80;;;4.53;;
43626;SDS011;29217;52.586;13.442;2024-02-21T02:52:37;15.25;;;3.75;;
43626;SDS011;29217;52.586;13.442;2024-02-21T02:55:03;17.10;;;5.18;;
43626;SDS011;29217;52.586;13.442;2024-02-21T02:57:30;13.32;;;3.75;;
43626;SDS011;29217;52.586;13.442;2024-02-21T02:59:55;14.90;;;4.50;;
43626;SDS011;29217;52.586;13.442;2024-02-21T03:02:21;12.40;;;3.20;;
43626;SDS011;29217;52.586;13.442;2024-02-21T03:04:47;10.32;;;3.95;;
43626;SDS011;29217;52.586;13.442;2024-02-21T03:07:13;11.63;;;3.38;;
43626;SDS011;29217;52.586;13.442;2024-02-21T03:09:40;13.55;;;4.57;;
43626;SDS011;29217;52.586;13.442;2024-02-21T03:12:07;16.48;;;3.92;;
43626;SDS011;29217;52.586;13.442;2024-02-21T03:14:33;13.77;;;3.72;;
43626;SDS011;29217;52.586;13.442;2024-02-21T03:16:59;16.00;;;4.43;;
43626;SDS011;29217;52.586;13.442;2024-02-21T03:19:25;14.18;;;4.28;;
43626;SDS011;29217;52.586;13.442;2024-02-21T03:21:51;20.17;;;4.40;;
43626;SDS011;29217;52.586;13.442;2024-02-21T03:24:18;15.63;;;4.82;;
43626;SDS011;29217;52.586;13.442;2024-02-21T03:26:44;13.48;;;4.40;;
43626;SDS011;29217;52.586;13.442;2024-02-21T03:29:11;15.48;;;4.57;;
43626;SDS011;29217;52.586;13.442;2024-02-21T03:31:37;12.15;;;5.03;;
43626;SDS011;29217;52.586;13.442;2024-02-21T03:34:02;16.40;;;4.38;;
43626;SDS011;29217;52.586;13.442;2024-02-21T03:36:28;12.18;;;5.30;;
43626;SDS011;29217;52.586;13.442;2024-02-21T03:38:54;22.30;;;4.78;;
43626;SDS011;29217;52.586;13.442;2024-02-21T03:41:20;15.50;;;4.97;;
43626;SDS011;29217;52.586;13.442;2024-02-21T03:43:46;15.70;;;4.72;;
43626;SDS011;29217;52.586;13.442;2024-02-21T03:46:12;17.27;;;4.70;;
43626;SDS011;29217;52.586;13.442;2024-02-21T03:48:37;18.23;;;5.25;;
43626;SDS011;29217;52.586;13.442;2024-02-21T03:51:03;14.48;;;5.30;;
43626;SDS011;29217;52.586;13.442;2024-02-21T03:53:29;12.88;;;5.35;;
43626;SDS011;29217;52.586;13.442;2024-02-21T03:55:55;13.45;;;5.45;;
43626;SDS011;29217;52.586;13.442;2024-02-21T03:58:21;10.25;;;4.82;;
43626;SDS011;29217;52.586;13.442;2024-02-21T04:00:47;19.35;;;4.97;;
43626;SDS011;29217;52.586;13.442;2024-02-21T04:03:13;14.57;;;4.60;;
43626;SDS011;29217;52.586;13.442;2024-02-21T04:05:38;12.18;;;5.18;;
43626;SDS011;29217;52.586;13.442;2024-02-21T04:08:04;14.57;;;5.53;;
43626;SDS011;29217;52.586;13.442;2024-02-21T04:10:31;19.38;;;6.15;;
43626;SDS011;29217;52.586;13.442;2024-02-21T04:12:56;13.20;;;5.32;;
43626;SDS011;29217;52.586;13.442;2024-02-21T04:15:22;13.93;;;5.38;;
43626;SDS011;29217;52.586;13.442;2024-02-21T04:17:47;16.05;;;5.25;;
43626;SDS011;29217;52.586;13.442;2024-02-21T04:20:14;14.18;;;6.22;;
43626;SDS011;29217;52.586;13.442;2024-02-21T04:22:44;19.95;;;6.15;;
43626;SDS011;29217;52.586;13.442;2024-02-21T04:25:10;14.98;;;5.75;;
43626;SDS011;29217;52.586;13.442;2024-02-21T04:27:36;19.20;;;5.75;;
43626;SDS011;29217;52.586;13.442;2024-02-21T04:30:03;22.65;;;6.47;;
43626;SDS011;29217;52.586;13.442;2024-02-21T04:32:29;10.30;;;4.25;;
43626;SDS011;29217;52.586;13.442;2024-02-21T04:34:54;23.98;;;6.80;;
43626;SDS011;29217;52.586;13.442;2024-02-21T04:37:20;20.27;;;6.05;;
43626;SDS011;29217;52.586;13.442;2024-02-21T04:39:45;22.52;;;6.25;;
43626;SDS011;29217;52.586;13.442;2024-02-21T04:42:11;16.77;;;6.18;;
43626;SDS011;29217;52.586;13.442;2024-02-21T04:44:37;29.92;;;5.70;;
43626;SDS011;29217;52.586;13.442;2024-02-21T04:47:03;21.83;;;6.93;;
43626;SDS011;29217;52.586;13.442;2024-02-21T04:49:29;21.55;;;5.90;;
43626;SDS011;29217;52.586;13.442;2024-02-21T04:51:55;16.85;;;6.40;;
43626;SDS011;29217;52.586;13.442;2024-02-21T04:54:20;23.92;;;7.13;;
43626;SDS011;29217;52.586;13.442;2024-02-21T04:56:46;20.10;;;6.72;;
43626;SDS011;29217;52.586;13.442;2024-02-21T04:59:11;18.17;;;6.18;;
43626;SDS011;29217;52.586;13.442;2024-02-21T05:01:37;20.70;;;6.28;;
43626;SDS011;29217;52.586;13.442;2024-02-21T05:04:03;17.95;;;7.35;;
43626;SDS011;29217;52.586;13.442;2024-02-21T05:06:29;16.73;;;6.65;;
43626;SDS011;29217;52.586;13.442;2024-02-21T05:08:54;17.23;;;6.00;;
43626;SDS011;29217;52.586;13.442;2024-02-21T05:11:23;26.27;;;5.72;;
43626;SDS011;29217;52.586;13.442;2024-02-21T05:13:49;21.00;;;6.72;;
43626;SDS011;29217;52.586;13.442;2024-02-21T05:16:15;17.15;;;6.28;;
43626;SDS011;29217;52.586;13.442;2024-02-21T05:18:41;24.73;;;6.35;;
43626;SDS011;29217;52.586;13.442;2024-02-21T05:21:07;22.60;;;7.18;;
43626;SDS011;29217;52.586;13.442;2024-02-21T05:23:33;17.20;;;5.80;;
43626;SDS011;29217;52.586;13.442;2024-02-21T05:25:59;21.63;;;5.90;;
43626;SDS011;29217;52.586;13.442;2024-02-21T05:28:24;20.63;;;6.32;;
43626;SDS011;29217;52.586;13.442;2024-02-21T05:30:50;19.30;;;6.28;;
43626;SDS011;29217;52.586;13.442;2024-02-21T05:33:16;21.52;;;6.22;;
43626;SDS011;29217;52.586;13.442;2024-02-21T05:35:46;22.92;;;6.78;;
43626;SDS011;29217;52.586;13.442;2024-02-21T05:38:13;23.15;;;6.03;;
43626;SDS011;29217;52.586;13.442;2024-02-21T05:40:38;28.80;;;6.68;;
43626;SDS011;29217;52.586;13.442;2024-02-21T05:43:04;18.58;;;6.25;;
43626;SDS011;29217;52.586;13.442;2024-02-21T05:45:30;23.08;;;6.97;;
43626;SDS011;29217;52.586;13.442;2024-02-21T05:47:55;19.27;;;6.47;;
43626;SDS011;29217;52.586;13.442;2024-02-21T05:50:22;20.10;;;7.97;;
43626;SDS011;29217;52.586;13.442;2024-02-21T05:52:51;15.40;;;6.30;;
43626;SDS011;29217;52.586;13.442;2024-02-21T05:55:17;26.92;;;6.45;;
43626;SDS011;29217;52.586;13.442;2024-02-21T05:57:43;17.42;;;6.10;;
43626;SDS011;29217;52.586;13.442;2024-02-21T06:00:09;21.67;;;6.72;;
43626;SDS011;29217;52.586;13.442;2024-02-21T06:02:35;24.67;;;7.05;;
43626;SDS011;29217;52.586;13.442;2024-02-21T06:05:00;19.38;;;6.78;;
43626;SDS011;29217;52.586;13.442;2024-02-21T06:07:26;19.00;;;5.75;;
43626;SDS011;29217;52.586;13.442;2024-02-21T06:09:52;21.30;;;6.75;;
43626;SDS011;29217;52.586;13.442;2024-02-21T06:12:17;22.33;;;6.63;;
43626;SDS011;29217;52.586;13.442;2024-02-21T06:14:43;16.95;;;6.55;;
43626;SDS011;29217;52.586;13.442;2024-02-21T06:17:08;21.52;;;6.75;;
43626;SDS011;29217;52.586;13.442;2024-02-21T06:19:34;21.00;;;7.45;;
43626;SDS011;29217;52.586;13.442;2024-02-21T06:22:00;23.13;;;7.38;;
43626;SDS011;29217;52.586;13.442;2024-02-21T06:24:25;15.25;;;7.20;;
43626;SDS011;29217;52.586;13.442;2024-02-21T06:26:51;18.40;;;7.35;;
43626;SDS011;29217;52.586;13.442;2024-02-21T06:29:16;20.42;;;6.80;;
43626;SDS011;29217;52.586;13.442;2024-02-21T06:31:42;23.02;;;7.43;;
43626;SDS011;29217;52.586;13.442;2024-02-21T06:34:08;18.58;;;6.68;;
43626;SDS011;29217;52.586;13.442;2024-02-21T06:36:33;26.63;;;7.50;;
43626;SDS011;29217;52.586;13.442;2024-02-21T06:38:59;18.70;;;6.97;;
43626;SDS011;29217;52.586;13.442;2024-02-21T06:41:24;20.20;;;6.25;;
43626;SDS011;29217;52.586;13.442;2024-02-21T06:43:50;23.83;;;6.97;;
43626;SDS011;29217;52.586;13.442;2024-02-21T06:46:28;25.15;;;7.10;;
43626;SDS011;29217;52.586;13.442;2024-02-21T06:48:55;20.20;;;6.57;;
43626;SDS011;29217;52.586;13.442;2024-02-21T06:51:25;16.67;;;7.20;;
43626;SDS011;29217;52.586;13.442;2024-02-21T06:53:51;21.83;;;7.47;;
43626;SDS011;29217;52.586;13.442;2024-02-21T06:56:17;23.88;;;7.45;;
43626;SDS011;29217;52.586;13.442;2024-02-21T06:58:42;22.23;;;7.60;;
43626;SDS011;29217;52.586;13.442;2024-02-21T07:01:08;19.88;;;7.30;;
43626;SDS011;29217;52.586;13.442;2024-02-21T07:03:34;15.70;;;6.80;;
43626;SDS011;29217;52.586;13.442;2024-02-21T07:06:00;27.20;;;7.72;;
43626;SDS011;29217;52.586;13.442;2024-02-21T07:08:25;15.52;;;7.68;;
43626;SDS011;29217;52.586;13.442;2024-02-21T07:10:51;19.75;;;7.40;;
43626;SDS011;29217;52.586;13.442;2024-02-21T07:13:17;21.08;;;7.82;;
43626;SDS011;29217;52.586;13.442;2024-02-21T07:15:42;18.38;;;7.47;;
43626;SDS011;29217;52.586;13.442;2024-02-21T07:18:08;18.70;;;7.50;;
43626;SDS011;29217;52.586;13.442;2024-02-21T07:20:34;17.23;;;6.32;;
43626;SDS011;29217;52.586;13.442;2024-02-21T07:23:02;15.27;;;6.97;;
43626;SDS011;29217;52.586;13.442;2024-02-21T07:25:28;23.10;;;6.95;;
43626;SDS011;29217;52.586;13.442;2024-02-21T07:27:54;18.42;;;6.65;;
43626;SDS011;29217;52.586;13.442;2024-02-21T07:30:20;16.88;;;6.63;;
43626;SDS011;29217;52.586;13.442;2024-02-21T07:32:48;17.95;;;6.78;;
43626;SDS011;29217;52.586;13.442;2024-02-21T07:35:15;17.98;;;6.57;;
43626;SDS011;29217;52.586;13.442;2024-02-21T07:37:41;15.77;;;6.38;;
43626;SDS011;29217;52.586;13.442;2024-02-21T07:40:12;16.02;;;7.15;;
43626;SDS011;29217;52.586;13.442;2024-02-21T07:42:38;21.02;;;7.35;;
43626;SDS011;29217;52.586;13.442;2024-02-21T07:45:04;14.45;;;6.40;;
43626;SDS011;29217;52.586;13.442;2024-02-21T07:47:29;21.40;;;7.55;;
43626;SDS011;29217;52.586;13.442;2024-02-21T07:49:55;19.13;;;7.10;;
43626;SDS011;29217;52.586;13.442;2024-02-21T07:52:21;11.35;;;5.63;;
43626;SDS011;29217;52.586;13.442;2024-02-21T07:54:46;17.48;;;6.63;;
43626;SDS011;29217;52.586;13.442;2024-02-21T07:57:12;13.48;;;6.13;;
43626;SDS011;29217;52.586;13.442;2024-02-21T07:59:37;16.05;;;6.15;;
43626;SDS011;29217;52.586;13.442;2024-02-21T08:02:03;12.45;;;6.20;;
43626;SDS011;29217;52.586;13.442;2024-02-21T08:04:31;20.38;;;6.63;;
43626;SDS011;29217;52.586;13.442;2024-02-21T08:06:57;15.07;;;5.80;;
43626;SDS011;29217;52.586;13.442;2024-02-21T08:09:26;13.25;;;6.40;;
43626;SDS011;29217;52.586;13.442;2024-02-21T08:11:52;19.23;;;6.20;;
43626;SDS011;29217;52.586;13.442;2024-02-21T08:14:19;19.52;;;6.25;;
43626;SDS011;29217;52.586;13.442;2024-02-21T08:16:44;13.55;;;5.43;;
43626;SDS011;29217;52.586;13.442;2024-02-21T08:19:10;12.20;;;5.43;;
43626;SDS011;29217;52.586;13.442;2024-02-21T08:21:36;18.42;;;6.15;;
43626;SDS011;29217;52.586;13.442;2024-02-21T08:24:01;13.32;;;6.15;;
43626;SDS011;29217;52.586;13.442;2024-02-21T08:26:27;16.92;;;6.15;;
43626;SDS011;29217;52.586;13.442;2024-02-21T08:28:55;11.25;;;5.15;;
43626;SDS011;29217;52.586;13.442;2024-02-21T08:31:25;16.20;;;6.20;;
43626;SDS011;29217;52.586;13.442;2024-02-21T08:33:56;15.00;;;6.03;;
43626;SDS011;29217;52.586;13.442;2024-02-21T08:36:27;16.00;;;5.93;;
43626;SDS011;29217;52.586;13.442;2024-02-21T08:38:54;16.48;;;5.32;;
43626;SDS011;29217;52.586;13.442;2024-02-21T08:41:20;14.52;;;6.80;;
43626;SDS011;29217;52.586;13.442;2024-02-21T08:43:48;16.10;;;5.32;;
43626;SDS011;29217;52.586;13.442;2024-02-21T08:46:14;18.35;;;5.45;;
43626;SDS011;29217;52.586;13.442;2024-02-21T08:48:39;15.88;;;6.57;;
43626;SDS011;29217;52.586;13.442;2024-02-21T08:51:05;12.80;;;5.78;;
43626;SDS011;29217;52.586;13.442;2024-02-21T08:53:31;18.90;;;6.05;;
43626;SDS011;29217;52.586;13.442;2024-02-21T08:55:56;23.98;;;7.18;;
43626;SDS011;29217;52.586;13.442;2024-02-21T08:58:23;15.52;;;6.38;;
43626;SDS011;29217;52.586;13.442;2024-02-21T09:00:50;11.32;;;5.68;;
43626;SDS011;29217;52.586;13.442;2024-02-21T09:03:16;16.58;;;7.32;;
43626;SDS011;29217;52.586;13.442;2024-02-21T09:05:45;16.60;;;6.28;;
43626;SDS011;29217;52.586;13.442;2024-02-21T09:08:11;13.45;;;6.43;;
43626;SDS011;29217;52.586;13.442;2024-02-21T09:10:36;17.48;;;6.82;;
43626;SDS011;29217;52.586;13.442;2024-02-21T09:13:02;16.50;;;6.25;;
43626;SDS011;29217;52.586;13.442;2024-02-21T09:15:28;19.23;;;6.43;;
43626;SDS011;29217;52.586;13.442;2024-02-21T09:17:54;18.63;;;6.15;;
43626;SDS011;29217;52.586;13.442;2024-02-21T09:20:20;24.00;;;7.22;;
43626;SDS011;29217;52.586;13.442;2024-02-21T09:22:45;15.20;;;5.95;;
43626;SDS011;29217;52.586;13.442;2024-02-21T09:25:11;20.58;;;7.63;;
43626;SDS011;29217;52.586;13.442;2024-02-21T09:27:37;14.95;;;6.22;;
43626;SDS011;29217;52.586;13.442;2024-02-21T09:30:04;22.38;;;6.40;;
43626;SDS011;29217;52.586;13.442;2024-02-21T09:32:30;10.48;;;5.60;;
43626;SDS011;29217;52.586;13.442;2024-02-21T09:34:57;19.08;;;7.32;;
43626;SDS011;29217;52.586;13.442;2024-02-21T09:37:23;22.08;;;6.95;;
43626;SDS011;29217;52.586;13.442;2024-02-21T09:39:49;18.63;;;7.53;;
43626;SDS011;29217;52.586;13.442;2024-02-21T09:42:18;19.35;;;7.00;;
43626;SDS011;29217;52.586;13.442;2024-02-21T09:44:45;15.48;;;6.80;;
43626;SDS011;29217;52.586;13.442;2024-02-21T09:50:21;11.45;;;6.03;;
43626;SDS011;29217;52.586;13.442;2024-02-21T09:52:50;14.60;;;6.45;;
43626;SDS011;29217;52.586;13.442;2024-02-21T09:55:17;17.92;;;7.25;;
43626;SDS011;29217;52.586;13.442;2024-02-21T09:57:43;14.63;;;6.15;;
43626;SDS011;29217;52.586;13.442;2024-02-21T10:00:09;20.83;;;7.93;;
43626;SDS011;29217;52.586;13.442;2024-02-21T10:02:35;16.27;;;6.13;;
43626;SDS011;29217;52.586;13.442;2024-02-21T10:05:02;15.98;;;6.45;;
43626;SDS011;29217;52.586;13.442;2024-02-21T10:07:30;15.75;;;6.95;;
43626;SDS011;29217;52.586;13.442;2024-02-21T10:10:03;18.48;;;7.30;;
43626;SDS011;29217;52.586;13.442;2024-02-21T10:12:29;16.52;;;6.88;;
43626;SDS011;29217;52.586;13.442;2024-02-21T10:15:01;19.33;;;7.32;;
43626;SDS011;29217;52.586;13.442;2024-02-21T10:17:34;19.15;;;7.13;;
43626;SDS011;29217;52.586;13.442;2024-02-21T10:20:06;15.48;;;7.00;;
43626;SDS011;29217;52.586;13.442;2024-02-21T10:22:34;13.25;;;6.18;;
43626;SDS011;29217;52.586;13.442;2024-02-21T10:25:10;23.40;;;6.68;;
43626;SDS011;29217;52.586;13.442;2024-02-21T10:27:37;12.70;;;6.50;;
43626;SDS011;29217;52.586;13.442;2024-02-21T10:30:04;15.68;;;6.85;;
43626;SDS011;29217;52.586;13.442;2024-02-21T10:32:32;16.38;;;7.13;;
43626;SDS011;29217;52.586;13.442;2024-02-21T10:35:03;14.55;;;6.32;;
43626;SDS011;29217;52.586;13.442;2024-02-21T10:37:30;16.38;;;7.32;;
43626;SDS011;29217;52.586;13.442;2024-02-21T10:39:57;16.45;;;7.05;;
43626;SDS011;29217;52.586;13.442;2024-02-21T10:42:23;17.25;;;6.85;;
43626;SDS011;29217;52.586;13.442;2024-02-21T10:44:54;17.92;;;7.05;;
43626;SDS011;29217;52.586;13.442;2024-02-21T10:47:29;17.45;;;6.35;;
43626;SDS011;29217;52.586;13.442;2024-02-21T10:50:02;15.13;;;5.80;;
43626;SDS011;29217;52.586;13.442;2024-02-21T10:54:56;12.93;;;6.43;;
43626;SDS011;29217;52.586;13.442;2024-02-21T10:57:25;16.17;;;6.38;;
43626;SDS011;29217;52.586;13.442;2024-02-21T10:59:52;15.30;;;6.25;;
43626;SDS011;29217;52.586;13.442;2024-02-21T11:02:19;16.77;;;5.90;;
43626;SDS011;29217;52.586;13.442;2024-02-21T11:04:45;9.60;;;5.18;;
43626;SDS011;29217;52.586;13.442;2024-02-21T11:07:11;14.20;;;6.25;;
43626;SDS011;29217;52.586;13.442;2024-02-21T11:09:38;12.95;;;5.85;;
43626;SDS011;29217;52.586;13.442;2024-02-21T11:12:05;17.33;;;5.65;;
43626;SDS011;29217;52.586;13.442;2024-02-21T11:14:31;11.52;;;5.57;;
43626;SDS011;29217;52.586;13.442;2024-02-21T11:17:02;10.88;;;5.28;;
43626;SDS011;29217;52.586;13.442;2024-02-21T11:19:29;11.48;;;5.45;;
43626;SDS011;29217;52.586;13.442;2024-02-21T11:21:56;12.50;;;5.40;;
43626;SDS011;29217;52.586;13.442;2024-02-21T11:24:29;9.85;;;5.50;;
43626;SDS011;29217;52.586;13.442;2024-02-21T11:29:43;12.35;;;5.43;;
43626;SDS011;29217;52.586;13.442;2024-02-21T11:32:15;12.05;;;4.85;;
43626;SDS011;29217;52.586;13.442;2024-02-21T11:37:26;11.77;;;5.53;;
43626;SDS011;29217;52.586;13.442;2024-02-21T11:39:53;14.15;;;5.55;;
43626;SDS011;29217;52.586;13.442;2024-02-21T11:42:19;11.95;;;5.25;;
43626;SDS011;29217;52.586;13.442;2024-02-21T11:44:45;9.90;;;4.82;;
43626;SDS011;29217;52.586;13.442;2024-02-21T11:47:11;13.32;;;5.20;;
43626;SDS011;29217;52.586;13.442;2024-02-21T11:49:43;14.77;;;5.80;;
43626;SDS011;29217;52.586;13.442;2024-02-21T11:52:15;11.98;;;5.43;;
43626;SDS011;29217;52.586;13.442;2024-02-21T11:54:43;12.35;;;5.07;;
43626;SDS011;29217;52.586;13.442;2024-02-21T11:57:10;14.68;;;4.65;;
43626;SDS011;29217;52.586;13.442;2024-02-21T11:59:36;12.85;;;5.15;;
43626;SDS011;29217;52.586;13.442;2024-02-21T12:02:02;11.65;;;4.35;;
43626;SDS011;29217;52.586;13.442;2024-02-21T12:04:29;7.15;;;4.07;;
43626;SDS011;29217;52.586;13.442;2024-02-21T12:06:58;10.18;;;4.07;;
43626;SDS011;29217;52.586;13.442;2024-02-21T12:09:24;7.93;;;4.47;;
43626;SDS011;29217;52.586;13.442;2024-02-21T12:11:57;8.98;;;4.05;;
43626;SDS011;29217;52.586;13.442;2024-02-21T12:14:24;8.00;;;4.40;;
43626;SDS011;29217;52.586;13.442;2024-02-21T12:16:50;9.95;;;4.00;;
43626;SDS011;29217;52.586;13.442;2024-02-21T12:19:16;8.23;;;4.15;;
43626;SDS011;29217;52.586;13.442;2024-02-21T12:21:42;10.93;;;4.00;;
43626;SDS011;29217;52.586;13.442;2024-02-21T12:24:17;8.20;;;4.07;;
43626;SDS011;29217;52.586;13.442;2024-02-21T12:26:45;9.43;;;3.83;;
43626;SDS011;29217;52.586;13.442;2024-02-21T12:29:11;8.10;;;3.92;;
43626;SDS011;29217;52.586;13.442;2024-02-21T12:31:37;6.53;;;3.40;;
43626;SDS011;29217;52.586;13.442;2024-02-21T12:34:04;9.60;;;3.45;;
43626;SDS011;29217;52.586;13.442;2024-02-21T12:36:30;9.48;;;3.97;;
43626;SDS011;29217;52.586;13.442;2024-02-21T12:38:56;9.13;;;3.67;;
43626;SDS011;29217;52.586;13.442;2024-02-21T12:41:22;5.15;;;3.30;;
43626;SDS011;29217;52.586;13.442;2024-02-21T12:43:50;13.40;;;4.43;;
43626;SDS011;29217;52.586;13.442;2024-02-21T12:46:16;8.95;;;3.72;;
43626;SDS011;29217;52.586;13.442;2024-02-21T12:48:42;7.10;;;3.28;;
43626;SDS011;29217;52.586;13.442;2024-02-21T12:51:08;8.07;;;3.15;;
43626;SDS011;29217;52.586;13.442;2024-02-21T12:53:34;9.85;;;3.30;;
43626;SDS011;29217;52.586;13.442;2024-02-21T12:56:00;4.80;;;3.13;;
43626;SDS011;29217;52.586;13.442;2024-02-21T12:58:25;8.07;;;3.58;;
43626;SDS011;29217;52.586;13.442;2024-02-21T13:00:51;6.18;;;2.90;;
43626;SDS011;29217;52.586;13.442;2024-02-21T13:03:18;4.30;;;2.80;;
43626;SDS011;29217;52.586;13.442;2024-02-21T13:05:44;8.05;;;2.97;;
43626;SDS011;29217;52.586;13.442;2024-02-21T13:08:13;6.32;;;3.63;;
43626;SDS011;29217;52.586;13.442;2024-02-21T13:10:39;8.25;;;3.08;;
43626;SDS011;29217;52.586;13.442;2024-02-21T13:13:05;7.05;;;2.90;;
43626;SDS011;29217;52.586;13.442;2024-02-21T13:15:31;5.85;;;3.08;;
43626;SDS011;29217;52.586;13.442;2024-02-21T13:17:57;5.45;;;3.25;;
43626;SDS011;29217;52.586;13.442;2024-02-21T13:20:23;6.50;;;2.95;;
43626;SDS011;29217;52.586;13.442;2024-02-21T13:22:49;10.90;;;3.53;;
43626;SDS011;29217;52.586;13.442;2024-02-21T13:25:15;9.05;;;3.42;;
43626;SDS011;29217;52.586;13.442;2024-02-21T13:27:45;7.65;;;3.25;;
43626;SDS011;29217;52.586;13.442;2024-02-21T13:30:11;7.63;;;3.10;;
43626;SDS011;29217;52.586;13.442;2024-02-21T13:32:37;9.07;;;3.15;;
43626;SDS011;29217;52.586;13.442;2024-02-21T13:35:04;6.97;;;3.80;;
43626;SDS011;29217;52.586;13.442;2024-02-21T13:37:31;10.77;;;3.03;;
43626;SDS011;29217;52.586;13.442;2024-02-21T13:39:57;8.45;;;3.17;;
43626;SDS011;29217;52.586;13.442;2024-02-21T13:42:23;9.82;;;2.90;;
43626;SDS011;29217;52.586;13.442;2024-02-21T13:44:52;7.85;;;3.28;;
43626;SDS011;29217;52.586;13.442;2024-02-21T13:47:18;7.00;;;2.95;;
43626;SDS011;29217;52.586;13.442;2024-02-21T13:49:43;6.78;;;3.10;;
43626;SDS011;29217;52.586;13.442;2024-02-21T13:52:09;6.78;;;3.60;;
43626;SDS011;29217;52.586;13.442;2024-02-21T13:54:35;9.20;;;3.60;;
43626;SDS011;29217;52.586;13.442;2024-02-21T13:57:00;8.48;;;3.40;;
43626;SDS011;29217;52.586;13.442;2024-02-21T13:59:27;7.00;;;3.22;;
43626;SDS011;29217;52.586;13.442;2024-02-21T14:01:53;9.02;;;3.40;;
43626;SDS011;29217;52.586;13.442;2024-02-21T14:04:19;5.28;;;3.10;;
43626;SDS011;29217;52.586;13.442;2024-02-21T14:06:45;9.48;;;3.53;;
43626;SDS011;29217;52.586;13.442;2024-02-21T14:09:11;7.05;;;3.40;;
43626;SDS011;29217;52.586;13.442;2024-02-21T14:11:37;5.47;;;3.00;;
43626;SDS011;29217;52.586;13.442;2024-02-21T14:14:03;11.82;;;3.92;;
43626;SDS011;29217;52.586;13.442;2024-02-21T14:16:30;8.15;;;3.17;;
43626;SDS011;29217;52.586;13.442;2024-02-21T14:18:55;6.70;;;3.70;;
43626;SDS011;29217;52.586;13.442;2024-02-21T14:21:21;8.60;;;3.58;;
43626;SDS011;29217;52.586;13.442;2024-02-21T14:23:47;6.70;;;3.08;;
43626;SDS011;29217;52.586;13.442;2024-02-21T14:26:12;6.15;;;3.55;;
43626;SDS011;29217;52.586;13.442;2024-02-21T14:28:39;10.20;;;3.35;;
43626;SDS011;29217;52.586;13.442;2024-02-21T14:31:05;8.02;;;3.47;;